Flight Track Log - Related Links

Times and Time Zones

All times are in EDT time to prevent confusion due to time zone crossing. See the SWA385 flight status page for this flight to view local times or setup timezone preferences in your user account.

Time Position Orientation Groundspeed Altitude Reporting Facility
EDT Latitude Longitude Course Direction KTS MPH feet Rate Location/Type
Mon 05:25:16 PM 38.9420 -77.5180 241° Southwest 177 204 1,800  Level FlightAware ADS-B
Mon 05:25:46 PM 38.9290 -77.5470 240° Southwest 212 244 2,600 1,855 Climbing FlightAware ADS-B
Mon 05:26:11 PM 38.9220 -77.5790 254° West 234 269 3,500 2,040 Climbing FlightAware ADS-B
Mon 05:26:36 PM 38.9150 -77.6140 256° West 255 293 4,300 1,309 Climbing FlightAware ADS-B
Mon 05:27:06 PM 38.9050 -77.6610 255° West 264 304 4,700 545 Climbing FlightAware ADS-B
Mon 05:27:31 PM 38.8980 -77.6980 256° West 260 299 4,800 655 Climbing FlightAware ADS-B
Mon 05:28:01 PM 38.8920 -77.7420 260° West 262 302 5,300 2,000 Climbing FlightAware ADS-B
Mon 05:28:31 PM 38.8870 -77.7890 262° West 263 303 6,800 2,945 Climbing FlightAware ADS-B
Mon 05:28:56 PM 38.8830 -77.8290 263° West 269 310 8,000 3,000 Climbing FlightAware ADS-B
Mon 05:29:21 PM 38.8800 -77.8690 265° West 275 316 9,300 3,000 Climbing FlightAware ADS-B
Mon 05:29:44 PM 38.8850 -77.9060 280° West 285 328 10,400 1,662 Climbing FlightAware ADS-B
Mon 05:30:26 PM 38.9040 -77.9810 288° West 331 381 11,100 2,049 Climbing FlightAware ADS-B
Mon 05:31:06 PM 38.9220 -78.0570 287° West 339 390 13,200 3,220 Climbing FlightAware ADS-B
Mon 05:31:48 PM 38.9420 -78.1400 287° West 349 402 15,500 3,140 Climbing FlightAware ADS-B
Mon 05:32:32 PM 38.9600 -78.2290 285° West 359 413 17,700 2,860 Climbing FlightAware ADS-B
Mon 05:33:14 PM 38.9640 -78.3210 273° West 368 423 19,600 2,780 Climbing FlightAware ADS-B
Mon 05:33:54 PM 38.9670 -78.4100 273° West 376 433 21,500 1,800 Climbing FlightAware ADS-B
Mon 05:34:34 PM 38.9690 -78.4980 272° West 381 438 22,000 353 Climbing FlightAware ADS-B
Mon 05:35:19 PM 38.9720 -78.5990 272° West 380 437 22,000 929 Level FlightAware ADS-B
Mon 05:35:58 PM 38.9750 -78.6880 273° West 386 444 23,300 2,092 Climbing FlightAware ADS-B
Mon 05:37:08 PM 38.9790 -78.8520 272° West 402 463 25,800 2,000 Climbing FlightAware ADS-B
Mon 05:37:52 PM 38.9820 -78.9560 272° West 413 475 27,100 1,714 Climbing FlightAware ADS-B
Mon 05:38:32 PM 38.9840 -79.0550 272° West 423 487 28,200 1,605 Climbing FlightAware ADS-B
Mon 05:39:18 PM 38.9870 -79.1770 272° West 436 502 29,400 1,535 Climbing FlightAware ADS-B
Mon 05:39:58 PM 38.9890 -79.2800 271° West 442 509 30,400 1,829 Climbing FlightAware ADS-B
Mon 05:40:40 PM 38.9920 -79.3900 272° West 437 503 31,900 1,857 Climbing FlightAware ADS-B
Mon 05:41:22 PM 38.9940 -79.5000 271° West 439 505 33,000 1,116 Climbing FlightAware ADS-B
Mon 05:42:06 PM 39.0030 -79.6120 276° West 439 505 33,500 1,000 Climbing FlightAware ADS-B
Mon 05:42:46 PM 39.0120 -79.7170 276° West 445 512 34,400 1,357 Climbing FlightAware ADS-B
Mon 05:43:30 PM 39.0230 -79.8330 277° West 447 514 35,400 1,650 Climbing FlightAware ADS-B
Mon 05:44:06 PM 39.0310 -79.9270 276° West 440 506 36,600 1,765 Climbing FlightAware ADS-B
Mon 05:44:55 PM 39.0420 -80.0530 276° West 432 497 37,900 944 Climbing FlightAware ADS-B
Mon 05:45:35 PM 39.0510 -80.1550 277° West 434 499 38,000 73 Climbing FlightAware ADS-B
Mon 05:46:17 PM 39.0610 -80.2620 277° West 433 498 38,000  Level FlightAware ADS-B
Mon 05:46:58 PM 39.0700 -80.3660 276° West 432 497 38,000  Level FlightAware ADS-B
Mon 05:47:42 PM 39.0790 -80.4800 276° West 431 496 38,000  Level FlightAware ADS-B
Mon 05:48:22 PM 39.0910 -80.5740 279° West 426 490 38,000  Level FlightAware ADS-B
Mon 05:49:07 PM 39.1320 -80.6790 297° West 423 487 38,000  Level FlightAware ADS-B
Mon 05:49:49 PM 39.1710 -80.7720 298° West 426 490 38,000  Level FlightAware ADS-B
Mon 05:50:29 PM 39.2090 -80.8580 300° West 425 489 38,000  Level FlightAware ADS-B
Mon 05:51:13 PM 39.2540 -80.9590 300° West 426 490 38,000  Level FlightAware ADS-B
Mon 05:51:53 PM 39.2920 -81.0480 299° West 427 491 38,000  Level FlightAware ADS-B
Mon 05:52:33 PM 39.3310 -81.1360 300° West 428 493 38,000  Level FlightAware ADS-B
Mon 05:53:17 PM 39.3740 -81.2350 299° West 428 493 38,000  Level FlightAware ADS-B
Mon 05:53:59 PM 39.4140 -81.3260 300° West 427 491 38,000  Level FlightAware ADS-B
Mon 05:54:39 PM 39.4520 -81.4160 299° West 428 493 38,000  Level FlightAware ADS-B
Mon 05:55:23 PM 39.4940 -81.5140 299° West 429 494 38,000 70 Level FlightAware ADS-B
Mon 05:56:05 PM 39.5340 -81.6080 299° West 431 496 38,100 506 Climbing FlightAware ADS-B
Mon 05:56:46 PM 39.5730 -81.6990 299° West 433 498 38,700 1,000 Climbing FlightAware ADS-B
Mon 05:57:29 PM 39.6160 -81.8010 299° West 432 497 39,500 940 Climbing FlightAware ADS-B
Mon 05:58:09 PM 39.6540 -81.8890 299° West 423 487 40,000 353 Climbing FlightAware ADS-B
Mon 05:58:54 PM 39.6950 -81.9870 299° West 420 483 40,000  Level FlightAware ADS-B
Mon 05:59:36 PM 39.7340 -82.0800 299° West 417 480 40,000  Level FlightAware ADS-B
Mon 06:00:31 PM 39.7860 -82.2020 299° West 416 479 40,000  Level FlightAware ADS-B
Mon 06:01:11 PM 39.8230 -82.2900 299° West 417 480 40,000  Level FlightAware ADS-B
Mon 06:01:54 PM 39.8620 -82.3830 299° West 418 481 40,000  Level FlightAware ADS-B
Mon 06:02:36 PM 39.9020 -82.4790 299° West 422 486 40,000  Level FlightAware ADS-B
Mon 06:03:20 PM 39.9420 -82.5770 298° West 424 488 40,000  Level FlightAware ADS-B
Mon 06:04:00 PM 39.9790 -82.6660 299° West 424 488 40,000  Level FlightAware ADS-B
Mon 06:04:44 PM 40.0200 -82.7660 298° West 422 486 40,000  Level FlightAware ADS-B
Mon 06:05:24 PM 40.0570 -82.8550 299° West 421 484 40,000  Level FlightAware ADS-B
Mon 06:06:06 PM 40.0950 -82.9470 298° West 420 483 40,000  Level FlightAware ADS-B
Mon 06:06:50 PM 40.1360 -83.0480 298° West 419 482 40,000  Level FlightAware ADS-B
Mon 06:07:30 PM 40.1720 -83.1360 298° West 417 480 40,000  Level FlightAware ADS-B
Mon 06:08:10 PM 40.2080 -83.2260 298° West 417 480 40,000  Level FlightAware ADS-B
Mon 06:08:54 PM 40.2470 -83.3220 298° West 417 480 40,000  Level FlightAware ADS-B
Mon 06:09:36 PM 40.2860 -83.4170 298° West 418 481 40,000 -552 Level FlightAware ADS-B
Mon 06:10:21 PM 40.3260 -83.5160 298° West 416 479 39,200 -1,024 Descending FlightAware ADS-B
Mon 06:10:58 PM 40.3590 -83.5990 298° West 417 480 38,600 -791 Descending FlightAware ADS-B
Mon 06:11:52 PM 40.4070 -83.7200 298° West 418 481 38,000 -367 Descending FlightAware ADS-B
Mon 06:12:36 PM 40.4470 -83.8200 298° West 418 481 38,000  Level FlightAware ADS-B
Mon 06:13:14 PM 40.4810 -83.9060 297° West 419 482 38,000  Level FlightAware ADS-B
Mon 06:13:58 PM 40.5200 -84.0040 298° West 420 483 38,000  Level FlightAware ADS-B
Mon 06:14:42 PM 40.5590 -84.1040 297° West 420 483 38,000  Level FlightAware ADS-B
Mon 06:15:02 PM 40.5770 -84.1490 298° West 420 483 38,000  Level FlightAware ADS-B
Mon 06:15:51 PM 40.6210 -84.2600 298° West 422 486 38,000  Level FlightAware ADS-B
Mon 06:16:33 PM 40.6580 -84.3540 297° West 424 488 38,000  Level FlightAware ADS-B
Mon 06:17:14 PM 40.6950 -84.4500 297° West 426 490 38,000  Level FlightAware ADS-B
Mon 06:17:58 PM 40.7340 -84.5500 297° West 426 490 38,000  Level FlightAware ADS-B
Mon 06:18:36 PM 40.7680 -84.6370 297° West 426 490 38,000  Level FlightAware ADS-B
Mon 06:19:21 PM 40.8070 -84.7390 297° West 427 491 38,000 -472 Level FlightAware ADS-B
Mon 06:20:05 PM 40.8460 -84.8410 297° West 425 489 37,300 -963 Descending FlightAware ADS-B
Mon 06:20:42 PM 40.8920 -84.9220 307° West 438 504 36,700 -963 Descending FlightAware ADS-B
Mon 06:21:26 PM 40.9590 -84.9970 320° Northwest 441 507 36,000 -955 Descending FlightAware ADS-B
Mon 06:22:10 PM 41.0300 -85.0770 320° Northwest 443 510 35,300 -951 Descending FlightAware ADS-B
Mon 06:22:48 PM 41.0880 -85.1420 320° Northwest 445 512 34,700 -1,756 Descending FlightAware ADS-B
Mon 06:23:32 PM 41.1590 -85.2190 321° Northwest 447 514 32,900 -2,458 Descending FlightAware ADS-B
Mon 06:24:11 PM 41.2190 -85.2890 319° Northwest 454 522 31,300 -2,857 Descending FlightAware ADS-B
Mon 06:24:56 PM 41.2720 -85.3940 304° West 450 518 28,900 -3,035 Descending FlightAware ADS-B
Mon 06:25:36 PM 41.3110 -85.4910 298° West 444 511 27,000 -2,846 Descending FlightAware ADS-B
Mon 06:26:14 PM 41.3470 -85.5800 298° West 437 503 25,200 -2,697 Descending FlightAware ADS-B
Mon 06:27:05 PM 41.3940 -85.6980 298° West 419 482 23,000 -2,494 Descending FlightAware ADS-B
Mon 06:27:43 PM 41.4280 -85.7840 298° West 406 467 21,500 -2,357 Descending FlightAware ADS-B
Mon 06:28:29 PM 41.4690 -85.8860 298° West 394 453 19,700 -2,233 Descending FlightAware ADS-B
Mon 06:29:09 PM 41.5000 -85.9650 298° West 377 434 18,300 -2,241 Descending FlightAware ADS-B
Mon 06:29:52 PM 41.5250 -86.0600 289° West 358 412 16,600 -2,329 Descending FlightAware ADS-B
Mon 06:30:34 PM 41.5250 -86.1500 270° West 345 397 15,000 -2,222 Descending FlightAware ADS-B
Mon 06:31:13 PM 41.5240 -86.2320 269° West 333 383 13,600 -2,143 Descending FlightAware ADS-B
Mon 06:31:58 PM 41.5240 -86.3230 270° West 321 369 12,000 -1,976 Descending FlightAware ADS-B
Mon 06:32:35 PM 41.5230 -86.3950 269° West 309 356 10,900 -1,519 Descending FlightAware ADS-B
Mon 06:33:17 PM 41.5230 -86.4720 270° West 292 336 10,000 -730 Descending FlightAware ADS-B
Mon 06:33:49 PM 41.5230 -86.5280 270° West 297 342 10,000  Level FlightAware ADS-B
Mon 06:34:17 PM 41.5220 -86.5810 269° West 297 342 10,000  Level FlightAware ADS-B
Mon 06:34:41 PM 41.5220 -86.6250 270° West 295 339 10,000  Level FlightAware ADS-B
Mon 06:35:15 PM 41.5210 -86.6870 269° West 294 338 10,000  Level FlightAware ADS-B
Mon 06:35:42 PM 41.5210 -86.7350 270° West 297 342 10,000  Level FlightAware ADS-B
Mon 06:36:07 PM 41.5200 -86.7790 268° West 272 313 10,000  Level FlightAware ADS-B
Mon 06:36:35 PM 41.5200 -86.8250 270° West 255 293 10,000  Level FlightAware ADS-B
Mon 06:37:03 PM 41.5190 -86.8690 268° West 253 291 10,000 -414 Level FlightAware ADS-B
Mon 06:37:33 PM 41.5190 -86.9140 270° West 247 284 9,600 -1,071 Descending FlightAware ADS-B
Mon 06:37:59 PM 41.5190 -86.9530 270° West 255 293 9,000 -1,393 Descending FlightAware ADS-B
Mon 06:38:29 PM 41.5250 -87.0010 279° West 259 298 8,300 -1,552 Descending FlightAware ADS-B
Mon 06:38:57 PM 41.5350 -87.0440 287° West 264 304 7,500 -1,607 Descending FlightAware ADS-B
Mon 06:39:25 PM 41.5460 -87.0870 289° West 259 298 6,800 -1,350 Descending FlightAware ADS-B
Mon 06:39:37 PM 41.5500 -87.1060 286° West 257 296 6,600 -1,200 Descending FlightAware ADS-B
Mon 06:40:05 PM 41.5600 -87.1470 288° West 252 290 6,000 -643 Descending FlightAware ADS-B
Mon 06:40:33 PM 41.5700 -87.1870 288° West 249 287 6,000  Level FlightAware ADS-B
Mon 06:41:03 PM 41.5810 -87.2330 288° West 251 289 6,000  Level FlightAware ADS-B
Mon 06:41:15 PM 41.5850 -87.2510 287° West 251 289 6,000  Level FlightAware ADS-B
Mon 06:41:45 PM 41.5950 -87.2950 287° West 249 287 6,000  Level FlightAware ADS-B
Mon 06:41:57 PM 41.5990 -87.3120 287° West 249 287 6,000  Level FlightAware ADS-B
Mon 06:42:25 PM 41.6090 -87.3540 288° West 254 292 6,000 -310 Level FlightAware ADS-B
Mon 06:42:55 PM 41.6200 -87.3990 288° West 252 290 5,700 -1,034 Descending FlightAware ADS-B
Mon 06:43:23 PM 41.6300 -87.4410 288° West 253 291 5,000 -1,556 Descending FlightAware ADS-B
Mon 06:43:49 PM 41.6390 -87.4800 287° West 251 289 4,300 -1,444 Descending FlightAware ADS-B
Mon 06:44:17 PM 41.6490 -87.5200 289° West 250 288 3,700 -1,345 Descending FlightAware ADS-B
Mon 06:44:47 PM 41.6600 -87.5670 287° West 261 300 3,000 -1,091 Descending FlightAware ADS-B
Mon 06:45:01 PM 41.6670 -87.5860 296° West 262 302 2,900 -143 Descending FlightAware ADS-B
Mon 06:45:29 PM 41.6890 -87.6170 314° West 242 278 2,900 -214 Level FlightAware ADS-B
Mon 06:45:57 PM 41.7090 -87.6450 314° West 210 242 2,700 -536 Descending FlightAware ADS-B
Mon 06:46:25 PM 41.7270 -87.6710 313° West 196 226 2,400 -778 Descending FlightAware ADS-B
Mon 06:46:51 PM 41.7440 -87.6920 317° Northwest 195 224 2,000 -857 Descending FlightAware ADS-B
Mon 06:47:21 PM 41.7700 -87.6870 North 185 213 1,600 -310 Descending FlightAware ADS-B
Mon 06:47:49 PM 41.7910 -87.6770 20° North 166 191 1,700  Climbing FlightAware ADS-B
Mon 06:48:17 PM 41.8090 -87.6830 346° North 143 165 1,600 -143 Descending FlightAware ADS-B
Mon 06:48:31 PM 41.8140 -87.6930 304° West 133 153 1,600 -429 Level FlightAware ADS-B
Mon 06:48:45 PM 41.8160 -87.7040 284° West 131 151 1,400 -818 Descending FlightAware ADS-B
Mon 06:49:15 PM 41.8070 -87.7240 239° Southwest 123 142 1,000 -436 Descending FlightAware ADS-B
Mon 06:49:40 PM 41.7980 -87.7350 222° Southwest 123 142 1,000 -100 Level FlightAware ADS-B
Mon 06:50:15 PM 41.7842 -87.7475 222° Southwest 146 168 900 -171 Descending Chicago Center

Login

Don't have an account? Register now (free) for customized features, flight alerts, and more!